Home  > Rebate Center > Cooking > Range Hoods >  Mounting Type: Island Mount >  Blower Type: Internal >  Style: Chimney Style

Rebate Center: Chimney Style Internal Island Mount Range Hoods

Sort:

  • Mail In Rebates
  • Instant Savings
  • Free Delivery
  • Product Reviews
  • Top Ratings
  • Quick Ship

Displaying 1 - 20 of 40 Products 20 40 50 products per page  

1

2

GE Profile PV977NSS

36 Inch Island Chimney Hood with 450 CFM Internal Blower, Vertical Exhaust, Variable Speed Fan Control and Dual Halogen Cooktop Lighting

PV977NSS   07/20/2016 - 12/31/2016 Save Up to $2,000 Download
Electrolux RHPC60GS

Designer Island Chimney Hood with 600 CFM Internal Blower, 4 Speed Electronic Control, 4 Halogen Lights and Glass Canopy

RH36PC60GS 36-Inches 07/23/2016 - 09/10/2016 Save up to $1,000 Download
RH42PC60GS 42-Inches 07/23/2016 - 09/10/2016 Save up to $1,000 Download
Thermador Masterpiece Series HPIBXXHS

Island Mount Chimney Range Hood with 600 CFM Internal Blower, 3-Speed Fan, 4 Halogen Lights w/ Dimmer, Dishwasher-Safe Frameless Filters and Convertible to Recirculating

HPIB42HS 42 in. Width 01/01/2016 - 12/31/2016 Save Up To $7,646 Instantly Download
HPIB48HS 48 in. Width 01/01/2016 - 12/31/2016 Save Up To $7,646 Instantly Download
BlueStar Manhattan Series BSMNHTTNIBB

Brushed Brass Island Hood with 3-Speed Blower Options, Hidden Controls, Baffle Filters, Halogen Lamps and Top Discharge

BSMANHI24BB 24" Width 01/01/2016 - 12/31/2016 Save $500 Download
BSMANHI30BB 30" Width 01/01/2016 - 12/31/2016 Save $500 Download
BSMANHI36BB 36" Width 01/01/2016 - 12/31/2016 Save $500 Download
BSMANHI42BB 42" Width 01/01/2016 - 12/31/2016 Save $500 Download
BSMANHI48BB 48" Width 01/01/2016 - 12/31/2016 Save $500 Download
BSMANHI54BB 54" Width 01/01/2016 - 12/31/2016 Save $500 Download
BSMANHI60BB 60" Width 01/01/2016 - 12/31/2016 Save $500 Download
BSMANHI66BB 66" Width 01/01/2016 - 12/31/2016 Save $500 Download
Viking Professional 5 Series VCIH55408

54 Inch Island Mount Chimney Range Hood with Optional Blowers, Variable Fan Speeds, Heat Sensor, Dimmable LED Lighting, Backlit LED Knobs and Commercial-Type Filters

VCIH55408SS Stainless Steel 07/01/2016 - 08/31/2016 Instant Savings of up to $3,898 Download
VCIH55408AR Apple Red 07/01/2016 - 08/31/2016 Instant Savings of up to $3,898 Download
VCIH55408BK Black 07/01/2016 - 08/31/2016 Instant Savings of up to $3,898 Download
VCIH55408BU Burgundy 07/01/2016 - 08/31/2016 Instant Savings of up to $3,898 Download
VCIH55408CB Cobalt Blue 07/01/2016 - 08/31/2016 Instant Savings of up to $3,898 Download
VCIH55408GG Graphite Gray 07/01/2016 - 08/31/2016 Instant Savings of up to $3,898 Download
VCIH55408WH White 07/01/2016 - 08/31/2016 Instant Savings of up to $3,898 Download
Prizer Hoods Crescent Series CRESI

Island Chimney Range Hood with Optional Blowers, 3-Speed Fan Control, High-Heat Sensor, Halogen Lights, Handcrafted 16 Gauge Material and Baffle Filters

CRESI36SS 36" Width, Brushed Stainless Steel 01/01/2016 - 12/31/2016 Save $500 Download
CRESI42SS 42" Width, Brushed Stainless Steel 01/01/2016 - 12/31/2016 Save $500 Download
CRESI48SS 48" Width, Brushed Stainless Steel 01/01/2016 - 12/31/2016 Save $500 Download
CRESI54SS 54" Width, Brushed Stainless Steel 01/01/2016 - 12/31/2016 Save $500 Download
CRESI60SS 60" Width, Brushed Stainless Steel 01/01/2016 - 12/31/2016 Save $500 Download
BlueStar Manhattan Series BSMNHTTNIBC

Brushed Copper Island Hood with 3-Speed Blower Options, Hidden Controls, Baffle Filters, Halogen Lamps and Top Discharge

BSMANHI24BC 24" Width 01/01/2016 - 12/31/2016 Save $500 Download
BSMANHI30BC 30" Width 01/01/2016 - 12/31/2016 Save $500 Download
BSMANHI36BC 36" Width 01/01/2016 - 12/31/2016 Save $500 Download
BSMANHI42BC 42" Width 01/01/2016 - 12/31/2016 Save $500 Download
BSMANHI48BC 48" Width 01/01/2016 - 12/31/2016 Save $500 Download
BSMANHI54BC 54" Width 01/01/2016 - 12/31/2016 Save $500 Download
BSMANHI60BC 60" Width 01/01/2016 - 12/31/2016 Save $500 Download
BSMANHI66BC 66" Width 01/01/2016 - 12/31/2016 Save $500 Download
BlueStar Laredo Series BSLAREDOIBC

Brushed Copper Island Hood with 3-Speed Blower Options, Hidden Controls, Baffle Filters and Halogen Lamps

BSLAREI30BC 30" Width 01/01/2016 - 12/31/2016 Save $500 Download
BSLAREI36BC 36" Width 01/01/2016 - 12/31/2016 Save $500 Download
BSLAREI42BC 42" Width 01/01/2016 - 12/31/2016 Save $500 Download
BSLAREI48BC 48" Width 01/01/2016 - 12/31/2016 Save $500 Download
BSLAREI54BC 54" Width 01/01/2016 - 12/31/2016 Save $500 Download
BSLAREI60BC 60" Width 01/01/2016 - 12/31/2016 Save $500 Download
BSLAREI66BC 66" Width 01/01/2016 - 12/31/2016 Save $500 Download
BlueStar Manhattan Series BSMNHTTNISS

Island Hood with 3-Speed Blower Options, 750 Color Options, Hidden Controls, Dishwasher Safe Baffle Filters, Halogen Lamps and Top Discharge

BSMANHI24SS 24" Width 01/01/2016 - 12/31/2016 Save $500 Download
BSMANHI30SS 30" Width 01/01/2016 - 12/31/2016 Save $500 Download
BSMANHI36SS 36" Width 01/01/2016 - 12/31/2016 Save $500 Download
BSMANHI42SS 42" Width 01/01/2016 - 12/31/2016 Save $500 Download
BSMANHI48SS 48" Width 01/01/2016 - 12/31/2016 Save $500 Download
BSMANHI54SS 54" Width 01/01/2016 - 12/31/2016 Save $500 Download
BSMANHI60SS 60" Width 01/01/2016 - 12/31/2016 Save $500 Download
BSMANHI66SS 66" Width 01/01/2016 - 12/31/2016 Save $500 Download
Prizer Hoods Pagoda Series PAGOI

Island Range Hood with Optional Blowers, 3-Speed Fan Control, High-Heat Sensor, Halogen Lights, Handcrafted 16 Gauge Material and Baffle Filters

PAGOI36SS 36" Width, Brushed Stainless Steel 01/01/2016 - 12/31/2016 Save $500 Download
PAGOI42SS 42" Width, Brushed Stainless Steel 01/01/2016 - 12/31/2016 Save $500 Download
PAGOI48SS 48" Width, Brushed Stainless Steel 01/01/2016 - 12/31/2016 Save $500 Download
PAGOI54SS 54" Width, Brushed Stainless Steel 01/01/2016 - 12/31/2016 Save $500 Download
PAGOI60SS 60" Width, Brushed Stainless Steel 01/01/2016 - 12/31/2016 Save $500 Download
BlueStar Hampton Series BSHAMPTONISS

Island Hood with 3-Speed Blower Options, 750 Color Options, Hidden Controls, Dishwasher Safe Baffle Filters, Halogen Lamps and Top Exhaust

BSHAMPI30SS 30" Width 01/01/2016 - 12/31/2016 Save $500 Download
BSHAMPI36SS 36" Width 01/01/2016 - 12/31/2016 Save $500 Download
BSHAMPI42SS 42" Width 01/01/2016 - 12/31/2016 Save $500 Download
BSHAMPI48SS 48" Width 01/01/2016 - 12/31/2016 Save $500 Download
BSHAMPI54SS 54" Width 01/01/2016 - 12/31/2016 Save $500 Download
BSHAMPI60SS 60" Width 01/01/2016 - 12/31/2016 Save $500 Download
BSHAMPI66SS 66" Width 01/01/2016 - 12/31/2016 Save $500 Download
Prizer Hoods Hampton Series HAMPI

Island Chimney Range Hood with Optional Blowers, 3-Speed Fan Control, High-Heat Sensor, Halogen Lights, Handcrafted 16 Gauge Material and Baffle Filters

HAMPI30SS 30" Width, Brushed Stainless Steel 01/01/2016 - 12/31/2016 Save $500 Download
HAMPI36SS 36" Width, Brushed Stainless Steel 01/01/2016 - 12/31/2016 Save $500 Download
HAMPI42SS 42" Width, Brushed Stainless Steel 01/01/2016 - 12/31/2016 Save $500 Download
HAMPI48SS 48" Width, Brushed Stainless Steel 01/01/2016 - 12/31/2016 Save $500 Download
HAMPI54SS 54" Width, Brushed Stainless Steel 01/01/2016 - 12/31/2016 Save $500 Download
HAMPI60SS 60" Width, Brushed Stainless Steel 01/01/2016 - 12/31/2016 Save $500 Download
HAMPI66SS 66" Width, Brushed Stainless Steel 01/01/2016 - 12/31/2016 Save $500 Download
BlueStar Laredo Series BSLAREDOISS

Island Hood with 3-Speed Blower Options, 750 Color Options, Hidden Controls, Dishwasher Safe Baffle Filters and Halogen Lamps

BSLAREI30SS 30" Width 01/01/2016 - 12/31/2016 Save $500 Download
BSLAREI36SS 36" Width 01/01/2016 - 12/31/2016 Save $500 Download
BSLAREI42SS 42" Width 01/01/2016 - 12/31/2016 Save $500 Download
BSLAREI48SS 48" Width 01/01/2016 - 12/31/2016 Save $500 Download
BSLAREI54SS 54" Width 01/01/2016 - 12/31/2016 Save $500 Download
BSLAREI60SS 60" Width 01/01/2016 - 12/31/2016 Save $500 Download
BSLAREI66SS 66" Width 01/01/2016 - 12/31/2016 Save $500 Download
Prizer Hoods Laredo Series LAREI

Island Chimney Range Hood with Optional Blowers, 3-Speed Fan Control, High-Heat Sensor, Halogen Lights, Handcrafted 16 Gauge Material and Baffle Filters

LAREI30SS 30" Width, Brushed Stainless Steel 01/01/2016 - 12/31/2016 Save $500 Download
LAREI36SS 36" Width, Brushed Stainless Steel 01/01/2016 - 12/31/2016 Save $500 Download
LAREI42SS 42" Width, Brushed Stainless Steel 01/01/2016 - 12/31/2016 Save $500 Download
LAREI48SS 48" Width, Brushed Stainless Steel 01/01/2016 - 12/31/2016 Save $500 Download
LAREI54SS 54" Width, Brushed Stainless Steel 01/01/2016 - 12/31/2016 Save $500 Download
LAREI60SS 60" Width, Brushed Stainless Steel 01/01/2016 - 12/31/2016 Save $500 Download
LAREI66SS 66" Width, Brushed Stainless Steel 01/01/2016 - 12/31/2016 Save $500 Download
BlueStar Hampton Series BSHAMPTONIBB

Brushed Brass Island Hood with 3-Speed Blower Options, Hidden Controls, Baffle Filters, Halogen Lamps and Top Exhaust

BSHAMPI30BB 30" Width 01/01/2016 - 12/31/2016 Save $500 Download
BSHAMPI36BB 36" Width 01/01/2016 - 12/31/2016 Save $500 Download
BSHAMPI42BB 42" Width 01/01/2016 - 12/31/2016 Save $500 Download
BSHAMPI48BB 48" Width 01/01/2016 - 12/31/2016 Save $500 Download
BSHAMPI54BB 54" Width 01/01/2016 - 12/31/2016 Save $500 Download
BSHAMPI60BB 60" Width 01/01/2016 - 12/31/2016 Save $500 Download
BSHAMPI66BB 66" Width 01/01/2016 - 12/31/2016 Save $500 Download
Prizer Hoods Sahara Curved Sides Series SACSI

Island Range Hood with Optional Blowers, 3-Speed Fan Control, High-Heat Sensor, Halogen Lights, Handcrafted 16 Gauge Material and Baffle Filters

SACSI36SS 36" Width, Brushed Stainless Steel 01/01/2016 - 12/31/2016 Save $500 Download
SACSI42SS 42" Width, Brushed Stainless Steel 01/01/2016 - 12/31/2016 Save $500 Download
SACSI48SS 48" Width, Brushed Stainless Steel 01/01/2016 - 12/31/2016 Save $500 Download
SACSI54SS 54" Width, Brushed Stainless Steel 01/01/2016 - 12/31/2016 Save $500 Download
SACSI60SS 60" Width, Brushed Stainless Steel 01/01/2016 - 12/31/2016 Save $500 Download
BlueStar Laramie Series BSLARAMIEISS

Island Hood with 3-Speed Blower Options, 750 Color Options, Hidden Controls, Dishwasher Safe Baffle Filters and Halogen Lamps

BSLARAI30SS 30" Width 01/01/2016 - 12/31/2016 Save $500 Download
BSLARAI36SS 36" Width 01/01/2016 - 12/31/2016 Save $500 Download
BSLARAI42SS 42" Width 01/01/2016 - 12/31/2016 Save $500 Download
BSLARAI48SS 48" Width 01/01/2016 - 12/31/2016 Save $500 Download
BSLARAI54SS 54" Width 01/01/2016 - 12/31/2016 Save $500 Download
BSLARAI60SS 60" Width 01/01/2016 - 12/31/2016 Save $500 Download
BSLARAI66SS 66" Width 01/01/2016 - 12/31/2016 Save $500 Download
Prizer Hoods Casino Royale Series CSNOI

Island Chimney Range Hood with Optional Blowers, 3-Speed Fan Control, High-Heat Sensor, Halogen Lights, Handcrafted 16 Gauge Material and Baffle Filters

CSNOI36SS 36" Width, Brushed Stainless Steel 01/01/2016 - 12/31/2016 Save $500 Download
CSNOI42SS 42" Width, Brushed Stainless Steel 01/01/2016 - 12/31/2016 Save $500 Download
CSNOI48SS 48" Width, Brushed Stainless Steel 01/01/2016 - 12/31/2016 Save $500 Download
CSNOI54SS 54" Width, Brushed Stainless Steel 01/01/2016 - 12/31/2016 Save $500 Download
CSNOI60SS 60" Width, Brushed Stainless Steel 01/01/2016 - 12/31/2016 Save $500 Download
Viking Professional 5 Series VCIH56608

66 Inch Island Mount Chimney Range Hood with Optional Blowers, Variable Fan Speeds, Heat Sensor, Dimmable LED Lighting, Backlit LED Knobs and Commercial-Type Filters

VCIH56608SS Stainless Steel 07/01/2016 - 08/31/2016 Instant Savings of up to $3,898 Download
VCIH56608AR Apple Red 07/01/2016 - 08/31/2016 Instant Savings of up to $3,898 Download
VCIH56608BK Black 07/01/2016 - 08/31/2016 Instant Savings of up to $3,898 Download
VCIH56608BU Burgundy 07/01/2016 - 08/31/2016 Instant Savings of up to $3,898 Download
VCIH56608CB Cobalt Blue 07/01/2016 - 08/31/2016 Instant Savings of up to $3,898 Download
VCIH56608GG Graphite Gray 07/01/2016 - 08/31/2016 Instant Savings of up to $3,898 Download
VCIH56608WH White 07/01/2016 - 08/31/2016 Instant Savings of up to $3,898 Download
BlueStar Laredo Series BSLAREDOIBB

Brushed Brass Island Hood with 3-Speed Blower Options, Hidden Controls, Baffle Filters and Halogen Lamps

BSLAREI30BB 30" Width 01/01/2016 - 12/31/2016 Save $500 Download
BSLAREI36BB 36" Width 01/01/2016 - 12/31/2016 Save $500 Download
BSLAREI42BB 42" Width 01/01/2016 - 12/31/2016 Save $500 Download
BSLAREI48BB 48" Width 01/01/2016 - 12/31/2016 Save $500 Download
BSLAREI54BB 54" Width 01/01/2016 - 12/31/2016 Save $500 Download
BSLAREI60BB 60" Width 01/01/2016 - 12/31/2016 Save $500 Download
BSLAREI66BB 66" Width 01/01/2016 - 12/31/2016 Save $500 Download

Sort:

Displaying 1 - 20 of 40 Products 20 40 50 products per page  

1

2

Expand Your Results

Remove Category:

Remove Mounting Type:

Remove Blower Type:

Remove Style:

Are you a builder
Quick LookQuick Look